Weather History for KVER - March, 2014

Change the Weather History Date:

Sunday, March 16, 2014

  Actual Average Record
Temperature  
Mean Temperature 35 °F -  
Max Temperature 98 °F 53 °F 98 °F (2014)
Min Temperature 22 °F 31 °F 11 °F (1949)
Degree Days  
Heating Degree Days 30    
Moisture  
Dew Point 23 °F    
Average Humidity 66    
Maximum Humidity 84    
Minimum Humidity 49    
Precipitation  
Precipitation 0.00 in - - ()
Sea Level Pressure  
Sea Level Pressure 30.09 in    
Wind  
Wind Speed 16 mph (NNE)    
Max Wind Speed 25 mph    
Max Gust Speed 38 mph    
Visibility 9 miles    
Events Snow    
Averages and records for this station are not official NWS values.
T = Trace of Precipitation, MM = Missing Value Source: NWS Daily Summary

Daily Weather History Graph

Daily Weather History Graph

Search for Another Location

Airport or City:

Trip Planner

Search our weather history database for the weather conditions in past years. The results will help you decide how hot, cold, wet, or windy it might be!

Date:

Astronomy

Mar. 16, 2014 Rise Set
Actual Time 7:20 AM CDT 7:18 PM CDT
Civil Twilight 6:53 AM CDT 7:45 PM CDT
Nautical Twilight 6:22 AM CDT 8:16 PM CDT
Astronomical Twilight 5:51 AM CDT 8:47 PM CDT
Moon 7:36 PM CDT (3/16) 7:04 AM CDT (3/16)
Length of Visible Light 12h 51m
Length of Day
11h 58m
Full, 100% of the Moon is Illuminated
Mar 16
Full
Mar 16
Full
Mar 23
Last Quarter
Mar 30
New
Apr 7
First Quarter

Hourly Weather History & Observations

Time (CDT) Temp. Windchill Dew Point Humidity Pressure Visibility Wind Dir Wind Speed Gust Speed Precip Events Conditions
12:15 AM 48.9 °F - 35.6 °F 60% 29.93 in 10.0 mi NE 17.3 mph 24.2 mph N/A   Clear
12:35 AM 47.1 °F - 35.2 °F 63% 29.95 in 10.0 mi NE 12.7 mph 23.0 mph N/A   Clear
12:55 AM 46.2 °F - 34.9 °F 65% 29.95 in 10.0 mi Calm Calm - N/A   Clear
1:15 AM 45.0 °F 38.2 °F 34.0 °F 65% 29.96 in 10.0 mi NE 15.0 mph 23.0 mph N/A   Mostly Cloudy
1:35 AM 43.9 °F 35.0 °F 32.9 °F 65% 29.96 in 10.0 mi NNE 23.0 mph 29.9 mph N/A   Mostly Cloudy
1:55 AM 43.0 °F 34.5 °F 32.2 °F 66% 29.96 in 10.0 mi NNE 19.6 mph 29.9 mph N/A   Mostly Cloudy
2:15 AM 41.4 °F 33.3 °F 31.8 °F 69% 29.97 in 10.0 mi NNE 16.1 mph 28.8 mph N/A   Mostly Cloudy
2:35 AM 40.1 °F 31.3 °F 31.1 °F 70% 29.98 in 10.0 mi NNE 17.3 mph 27.6 mph N/A   Mostly Cloudy
2:55 AM 39.4 °F 29.5 °F 30.6 °F 71% 29.98 in 10.0 mi NNE 20.7 mph 29.9 mph N/A   Overcast
3:15 AM 39.2 °F 30.2 °F 30.2 °F 70% 29.98 in 10.0 mi NNE 17.3 mph 23.0 mph N/A   Overcast
3:35 AM 39.2 °F 29.6 °F 30.0 °F 70% 29.98 in 10.0 mi NE 19.6 mph 29.9 mph N/A   Overcast
3:55 AM 39.2 °F 29.8 °F 27.9 °F 64% 29.98 in 10.0 mi NE 18.4 mph 32.2 mph N/A   Overcast
4:15 AM 39.2 °F 31.2 °F 24.4 °F 56% 29.98 in 10.0 mi NNE 13.8 mph 25.3 mph N/A   Overcast
4:35 AM 38.5 °F 29.2 °F 25.3 °F 59% 29.98 in 10.0 mi NNE 17.3 mph 29.9 mph N/A   Overcast
4:55 AM 38.3 °F 29.0 °F 23.4 °F 55% 29.99 in 10.0 mi NE 17.3 mph 28.8 mph N/A   Overcast
5:15 AM 37.9 °F 28.5 °F 22.3 °F 53% 29.99 in 10.0 mi NNE 17.3 mph 21.9 mph N/A   Overcast
5:35 AM 37.6 °F 28.1 °F 24.1 °F 58% 30.00 in 10.0 mi NE 17.3 mph 28.8 mph N/A   Overcast
5:55 AM 37.0 °F 27.0 °F 24.6 °F 61% 30.01 in 10.0 mi NE 18.4 mph 33.4 mph N/A   Overcast
6:15 AM 36.3 °F 25.5 °F 24.6 °F 63% 30.02 in 10.0 mi NE 20.7 mph 38.0 mph N/A   Overcast
6:35 AM 36.0 °F 23.9 °F 24.8 °F 64% 30.02 in 10.0 mi NNE 25.3 mph 28.8 mph N/A   Overcast
6:55 AM 35.4 °F 24.3 °F 25.3 °F 67% 30.03 in 10.0 mi NNE 20.7 mph 27.6 mph N/A   Overcast
7:15 AM 34.9 °F 24.2 °F 25.5 °F 69% 30.04 in 10.0 mi NNE 18.4 mph 27.6 mph N/A   Overcast
7:35 AM 34.7 °F 24.0 °F 25.7 °F 70% 30.04 in 10.0 mi NNE 18.4 mph 27.6 mph N/A   Overcast
7:55 AM 34.2 °F 23.3 °F 26.2 °F 73% 30.06 in 10.0 mi NNE 18.4 mph 27.6 mph N/A   Overcast
8:15 AM 34.2 °F 23.0 °F 25.9 °F 72% 30.06 in 10.0 mi NNE 19.6 mph 27.6 mph N/A   Overcast
8:35 AM 34.2 °F 23.3 °F 25.7 °F 71% 30.08 in 10.0 mi NNE 18.4 mph 29.9 mph N/A   Overcast
8:55 AM 34.2 °F 23.3 °F 25.9 °F 72% 30.09 in 10.0 mi NNE 18.4 mph 31.1 mph N/A   Overcast
9:15 AM 34.0 °F 23.4 °F 26.4 °F 74% 30.10 in 10.0 mi NNE 17.3 mph 31.1 mph N/A   Overcast
9:35 AM 33.3 °F 22.8 °F 26.4 °F 76% 30.11 in 10.0 mi NNE 16.1 mph 31.1 mph N/A   Overcast
9:55 AM 32.7 °F 20.4 °F 26.2 °F 77% 30.12 in 10.0 mi NE 21.9 mph 26.5 mph N/A Snow Light Snow
10:15 AM 32.4 °F 22.1 °F 26.8 °F 80% 30.13 in 5.0 mi NE 15.0 mph 31.1 mph N/A Snow Light Snow
10:35 AM 32.0 °F 20.5 °F 26.8 °F 81% 30.14 in 5.0 mi NNE 18.4 mph 27.6 mph N/A Snow Light Snow
10:55 AM 31.6 °F 21.2 °F 26.4 °F 81% 30.15 in 7.0 mi North 15.0 mph 25.3 mph N/A Snow Light Snow
11:15 AM 30.7 °F 19.2 °F 26.1 °F 83% 30.16 in 4.0 mi NNE 17.3 mph 29.9 mph N/A Snow Light Snow
11:35 AM 29.8 °F 17.3 °F 25.5 °F 84% 30.16 in 3.0 mi North 19.6 mph 26.5 mph N/A Snow Light Snow
11:55 AM 29.3 °F 15.9 °F 25.0 °F 84% 30.17 in 2.0 mi NNE 21.9 mph 28.8 mph N/A Snow Light Snow
12:15 PM 29.7 °F 16.1 °F 24.8 °F 82% 30.17 in 3.0 mi North 23.0 mph 28.8 mph N/A Snow Light Snow
12:35 PM 29.7 °F 17.1 °F 23.9 °F 79% 30.18 in 10.0 mi North 19.6 mph 29.9 mph N/A Snow Light Snow
12:55 PM 30.2 °F 16.5 °F 23.4 °F 76% 30.18 in 10.0 mi NNE 24.2 mph - N/A   Overcast
1:15 PM 30.2 °F 17.4 °F 22.1 °F 72% 30.18 in 10.0 mi NNE 20.7 mph 28.8 mph N/A   Overcast
1:35 PM 30.7 °F 17.8 °F 21.7 °F 69% 30.17 in 10.0 mi North 21.9 mph 28.8 mph N/A Snow Light Snow
1:55 PM 30.9 °F 19.1 °F 21.7 °F 69% 30.17 in 7.0 mi North 18.4 mph 26.5 mph N/A Snow Light Snow
2:15 PM 30.6 °F 18.6 °F 21.4 °F 69% 30.16 in 10.0 mi North 18.4 mph 26.5 mph N/A   Overcast
2:35 PM 30.9 °F 18.7 °F 20.5 °F 65% 30.15 in 10.0 mi NNE 19.6 mph 25.3 mph N/A   Overcast
2:55 PM 31.1 °F 18.9 °F 20.5 °F 65% 30.14 in 10.0 mi North 19.6 mph 25.3 mph N/A   Overcast
3:15 PM 30.7 °F 18.1 °F 20.1 °F 65% 30.13 in 10.0 mi NNE 20.7 mph 27.6 mph N/A   Overcast
3:35 PM 31.5 °F 19.4 °F 19.9 °F 62% 30.13 in 10.0 mi North 19.6 mph 25.3 mph N/A   Overcast
3:55 PM 32.0 °F 20.5 °F 19.8 °F 61% 30.13 in 10.0 mi NNE 18.4 mph 26.5 mph N/A   Overcast
4:15 PM 32.0 °F 20.8 °F 19.2 °F 59% 30.12 in 10.0 mi North 17.3 mph 20.7 mph N/A   Overcast
4:35 PM 32.7 °F 22.5 °F 19.4 °F 58% 30.11 in 10.0 mi NE 15.0 mph - N/A   Mostly Cloudy
4:55 PM 33.8 °F 25.3 °F 19.2 °F 55% 30.11 in 10.0 mi NE 11.5 mph 18.4 mph N/A   Mostly Cloudy
5:15 PM 33.6 °F 23.3 °F 18.5 °F 54% 30.10 in 10.0 mi NNE 16.1 mph 21.9 mph N/A   Scattered Clouds
5:35 PM 32.9 °F 22.4 °F 17.1 °F 52% 30.12 in 10.0 mi NNE 16.1 mph 19.6 mph N/A   Clear
5:55 PM 32.9 °F 22.8 °F 16.3 °F 51% 30.12 in 10.0 mi NNE 15.0 mph - N/A   Clear
6:15 PM 32.2 °F 22.7 °F 15.8 °F 51% 30.13 in 10.0 mi NNE 12.7 mph - N/A   Clear
6:35 PM 31.8 °F 22.3 °F 14.4 °F 49% 30.13 in 10.0 mi NNE 12.7 mph 18.4 mph N/A   Clear
6:55 PM 31.1 °F 23.1 °F 14.2 °F 50% 30.13 in 10.0 mi NNE 9.2 mph 16.1 mph N/A   Clear
7:15 PM 29.8 °F 21.5 °F 13.6 °F 51% 30.13 in 10.0 mi NNE 9.2 mph - N/A   Clear
7:35 PM 28.6 °F 20.7 °F 14.2 °F 55% 30.13 in 10.0 mi NE 8.1 mph - N/A   Clear
7:55 PM 27.7 °F 19.6 °F 14.7 °F 58% 30.14 in 10.0 mi NNE 8.1 mph - N/A   Clear
8:15 PM 27.3 °F 19.1 °F 14.9 °F 60% 30.14 in 10.0 mi NE 8.1 mph - N/A   Clear
8:35 PM 27.0 °F 20.5 °F 14.9 °F 60% 30.14 in 10.0 mi NE 5.8 mph - N/A   Clear
8:55 PM 26.4 °F 17.3 °F 14.7 °F 61% 30.15 in 10.0 mi NNE 9.2 mph - N/A   Clear
9:15 PM 26.1 °F 16.8 °F 14.9 °F 63% 30.15 in 10.0 mi NNE 9.2 mph - N/A   Clear
9:35 PM 25.5 °F 16.9 °F 14.9 °F 64% 30.15 in 10.0 mi NNE 8.1 mph - N/A   Clear
9:55 PM 25.0 °F 16.3 °F 14.7 °F 65% 30.15 in 10.0 mi NNE 8.1 mph - N/A   Clear
10:15 PM 24.6 °F 15.1 °F 14.5 °F 66% 30.15 in 10.0 mi NNE 9.2 mph - N/A   Clear
10:35 PM 24.3 °F 15.4 °F 14.5 °F 67% 30.16 in 10.0 mi North 8.1 mph - N/A   Clear
10:55 PM 23.9 °F 15.8 °F 14.7 °F 68% 30.15 in 10.0 mi North 6.9 mph - N/A   Clear
11:15 PM 23.2 °F 16.0 °F 14.7 °F 70% 30.16 in 10.0 mi North 5.8 mph - N/A   Clear
11:35 PM 22.6 °F 16.5 °F 14.4 °F 71% 30.14 in 10.0 mi NE 4.6 mph - N/A   Clear
11:55 PM 22.5 °F 14.1 °F 14.0 °F 70% 30.13 in 10.0 mi NNE 6.9 mph - N/A   Clear